Time;durP1;ratioP1;P1;durP2;ratioP2;P2;SDS_P1;SDS_P2;PMS_P1;PMS_P2;Temp;Humidity;BMP_temperature;BMP_pressure;BME280_temperature;BME280_humidity;BME280_pressure;Samples;Min_cycle;Max_cycle;Signal;HPM_P1;HPM_P2
2023/06/23 00:00:22;;;;;;;2.58;1.70;;;;;;;;;;5087885;28;20387;-69
2023/06/23 00:02:48;;;;;;;2.40;2.20;;;;;;;;;;5088089;28;20380;-70
2023/06/23 00:05:14;;;;;;;2.20;2.00;;;;;;;;;;5086013;28;20383;-70
2023/06/23 00:07:40;;;;;;;3.10;1.88;;;;;;;;;;5088162;28;20434;-69
2023/06/23 00:10:08;;;;;;;1.63;1.52;;;;;;;;;;5087128;28;20384;-69
2023/06/23 00:12:35;;;;;;;2.15;1.88;;;;;;;;;;5086252;28;20378;-70
2023/06/23 00:15:01;;;;;;;5.47;2.35;;;;;;;;;;5086982;28;20380;-69
2023/06/23 00:17:27;;;;;;;2.20;2.03;;;;;;;;;;5086055;28;20445;-69
2023/06/23 00:19:54;;;;;;;2.00;1.90;;;;;;;;;;5086929;28;20466;-69
2023/06/23 00:22:20;;;;;;;1.77;1.67;;;;;;;;;;5084307;28;20380;-69
2023/06/23 00:24:46;;;;;;;1.80;1.63;;;;;;;;;;5084600;28;20443;-69
2023/06/23 00:27:11;;;;;;;2.08;1.88;;;;;;;;;;5076415;28;20372;-70
2023/06/23 00:29:37;;;;;;;1.87;1.53;;;;;;;;;;5072767;28;20372;-70
2023/06/23 00:32:04;;;;;;;2.28;1.80;;;;;;;;;;5071583;28;20388;-70
2023/06/23 00:34:30;;;;;;;2.50;2.00;;;;;;;;;;5071064;28;20380;-70
2023/06/23 00:36:55;;;;;;;1.80;1.70;;;;;;;;;;5073095;28;20453;-70
2023/06/23 00:39:22;;;;;;;1.93;1.83;;;;;;;;;;5075319;28;20400;-70
2023/06/23 00:41:49;;;;;;;1.97;1.73;;;;;;;;;;5075009;28;20383;-70
2023/06/23 00:44:16;;;;;;;1.98;1.88;;;;;;;;;;5075219;28;20425;-70
2023/06/23 00:46:43;;;;;;;4.32;1.85;;;;;;;;;;5076186;28;20379;-70
2023/06/23 00:49:10;;;;;;;1.65;1.55;;;;;;;;;;5075459;28;20935;-69
2023/06/23 00:51:36;;;;;;;2.03;1.83;;;;;;;;;;5076902;28;20380;-69
2023/06/23 00:54:04;;;;;;;3.45;2.50;;;;;;;;;;5074894;28;20804;-70
2023/06/23 00:56:30;;;;;;;2.50;2.30;;;;;;;;;;5074710;28;20392;-69
2023/06/23 00:58:56;;;;;;;1.83;1.73;;;;;;;;;;5076497;28;20383;-69
2023/06/23 01:01:22;;;;;;;1.70;1.60;;;;;;;;;;5074346;28;20376;-69
2023/06/23 01:03:48;;;;;;;4.18;1.92;;;;;;;;;;5074376;28;20874;-69
2023/06/23 01:06:27;;;;;;;1.60;1.50;;;;;;;;;;5075659;28;20403;-69
2023/06/23 01:09:07;;;;;;;2.83;1.40;;;;;;;;;;5075108;28;20863;-69
2023/06/23 01:11:51;;;;;;;1.60;1.50;;;;;;;;;;5075129;28;20399;-69
2023/06/23 01:14:22;;;;;;;2.20;2.00;;;;;;;;;;5074983;28;20379;-69
2023/06/23 01:16:53;;;;;;;1.67;1.58;;;;;;;;;;5074767;28;20410;-69
2023/06/23 01:19:33;;;;;;;2.42;2.15;;;;;;;;;;5074565;28;20387;-69
2023/06/23 01:22:18;;;;;;;1.87;1.77;;;;;;;;;;5075207;28;20375;-69
2023/06/23 01:24:50;;;;;;;2.20;2.00;;;;;;;;;;5074528;28;20396;-68
2023/06/23 01:27:19;;;;;;;6.05;1.75;;;;;;;;;;5076324;28;20462;-68
2023/06/23 01:29:47;;;;;;;3.28;1.80;;;;;;;;;;5075241;28;20471;-68
2023/06/23 01:32:18;;;;;;;2.45;1.98;;;;;;;;;;5075177;28;20391;-69
2023/06/23 01:34:45;;;;;;;3.42;1.63;;;;;;;;;;5075986;28;20857;-68
2023/06/23 01:37:13;;;;;;;2.25;2.05;;;;;;;;;;5075081;28;20419;-68
2023/06/23 01:39:42;;;;;;;1.50;1.40;;;;;;;;;;5075302;28;20380;-68
2023/06/23 01:42:13;;;;;;;5.82;1.73;;;;;;;;;;5074170;28;20400;-68
2023/06/23 01:44:42;;;;;;;2.13;1.90;;;;;;;;;;5075159;28;20386;-68
2023/06/23 01:47:10;;;;;;;1.90;1.67;;;;;;;;;;5073371;28;20380;-68
2023/06/23 01:49:37;;;;;;;3.22;2.15;;;;;;;;;;5074947;28;20390;-67
2023/06/23 01:52:04;;;;;;;2.33;2.00;;;;;;;;;;5073425;28;20416;-67
2023/06/23 01:54:31;;;;;;;2.38;1.98;;;;;;;;;;5074528;28;20384;-68
2023/06/23 01:56:58;;;;;;;3.45;1.67;;;;;;;;;;5075366;28;20404;-68
2023/06/23 01:59:24;;;;;;;1.50;1.40;;;;;;;;;;5074527;28;20387;-68
2023/06/23 02:01:51;;;;;;;2.25;2.05;;;;;;;;;;5074833;28;20862;-68
2023/06/23 02:04:18;;;;;;;2.92;1.95;;;;;;;;;;5074510;28;20391;-68
2023/06/23 02:06:46;;;;;;;9.32;7.38;;;;;;;;;;5073029;28;20410;-68
2023/06/23 02:09:15;;;;;;;16.58;13.52;;;;;;;;;;5074432;28;20869;-67
2023/06/23 02:11:42;;;;;;;16.45;13.15;;;;;;;;;;5074744;28;20375;-68
2023/06/23 02:14:09;;;;;;;16.15;12.88;;;;;;;;;;5074078;28;20380;-68
2023/06/23 02:16:35;;;;;;;14.00;12.50;;;;;;;;;;5073242;28;20453;-69
2023/06/23 02:19:02;;;;;;;16.87;12.40;;;;;;;;;;5073347;28;20376;-68
2023/06/23 02:21:29;;;;;;;17.20;12.97;;;;;;;;;;5072890;28;20467;-68
2023/06/23 02:23:55;;;;;;;16.38;12.43;;;;;;;;;;5074097;28;20371;-68
2023/06/23 02:26:25;;;;;;;16.60;13.00;;;;;;;;;;5073988;28;20947;-68
2023/06/23 02:28:52;;;;;;;14.98;13.02;;;;;;;;;;5074049;28;20371;-68
2023/06/23 02:31:19;;;;;;;14.90;13.10;;;;;;;;;;5072724;28;20383;-68
2023/06/23 02:33:45;;;;;;;15.52;12.55;;;;;;;;;;5074673;28;20392;-69
2023/06/23 02:36:11;;;;;;;16.13;13.40;;;;;;;;;;5072473;28;20491;-68
2023/06/23 02:38:38;;;;;;;16.17;14.30;;;;;;;;;;5073161;28;20758;-68
2023/06/23 02:41:07;;;;;;;19.25;13.82;;;;;;;;;;5074526;28;20380;-68
2023/06/23 02:43:36;;;;;;;17.92;14.15;;;;;;;;;;5074278;28;20460;-68
2023/06/23 02:46:04;;;;;;;18.88;14.48;;;;;;;;;;5073685;28;20375;-68
2023/06/23 02:48:35;;;;;;;19.63;15.32;;;;;;;;;;5072409;28;20384;-68
2023/06/23 02:51:01;;;;;;;18.60;14.90;;;;;;;;;;5074476;28;20808;-68
2023/06/23 02:53:29;;;;;;;19.50;15.35;;;;;;;;;;5073918;28;20394;-69
2023/06/23 02:56:00;;;;;;;20.90;15.13;;;;;;;;;;5072269;28;20466;-69
2023/06/23 02:58:27;;;;;;;24.63;16.63;;;;;;;;;;5073802;28;20431;-69
2023/06/23 03:00:54;;;;;;;26.77;17.98;;;;;;;;;;5073862;28;20735;-69
2023/06/23 03:03:20;;;;;;;23.05;17.20;;;;;;;;;;5072760;28;20911;-69
2023/06/23 03:05:47;;;;;;;21.05;17.08;;;;;;;;;;5073157;28;20388;-69
2023/06/23 03:08:13;;;;;;;20.17;17.17;;;;;;;;;;5073592;28;20375;-69
2023/06/23 03:10:39;;;;;;;21.00;16.83;;;;;;;;;;5073077;28;20387;-69
2023/06/23 03:13:05;;;;;;;22.42;18.27;;;;;;;;;;5073352;28;20386;-69
2023/06/23 03:15:31;;;;;;;20.95;17.92;;;;;;;;;;5072058;28;20406;-69
2023/06/23 03:17:59;;;;;;;21.83;17.80;;;;;;;;;;5071803;28;20415;-69
2023/06/23 03:20:25;;;;;;;23.80;18.02;;;;;;;;;;5073738;28;20392;-69
2023/06/23 03:22:55;;;;;;;22.55;18.88;;;;;;;;;;5071774;28;20413;-68
2023/06/23 03:25:26;;;;;;;23.73;18.57;;;;;;;;;;5073165;28;20420;-69
2023/06/23 03:27:54;;;;;;;23.67;19.40;;;;;;;;;;5073632;28;20376;-69
2023/06/23 03:30:40;;;;;;;22.05;18.48;;;;;;;;;;5071918;28;20399;-69
2023/06/23 03:33:12;;;;;;;22.40;18.75;;;;;;;;;;5071690;28;20438;-69
2023/06/23 03:35:42;;;;;;;20.80;18.60;;;;;;;;;;5071677;28;20913;-69
2023/06/23 03:38:09;;;;;;;26.30;20.08;;;;;;;;;;5072989;28;20409;-69
2023/06/23 03:40:38;;;;;;;22.50;18.27;;;;;;;;;;5072990;28;20368;-69
2023/06/23 03:43:14;;;;;;;22.67;19.17;;;;;;;;;;5073583;28;20549;-69
2023/06/23 03:45:41;;;;;;;20.55;18.10;;;;;;;;;;5073764;28;20440;-69
2023/06/23 03:48:10;;;;;;;26.07;19.57;;;;;;;;;;5072864;28;20391;-69
2023/06/23 03:50:38;;;;;;;21.13;18.83;;;;;;;;;;5072444;28;20758;-69
2023/06/23 03:53:05;;;;;;;21.48;18.40;;;;;;;;;;5072819;28;20445;-69
2023/06/23 03:55:32;;;;;;;24.58;20.20;;;;;;;;;;5072845;28;20448;-69
2023/06/23 03:58:02;;;;;;;21.52;19.23;;;;;;;;;;5072698;28;20383;-68
2023/06/23 04:00:28;;;;;;;22.33;19.50;;;;;;;;;;5072874;28;20372;-69
2023/06/23 04:02:56;;;;;;;24.42;19.60;;;;;;;;;;5073176;28;20410;-69
2023/06/23 04:05:23;;;;;;;27.13;20.25;;;;;;;;;;5073545;28;20376;-68
2023/06/23 04:07:50;;;;;;;22.23;19.83;;;;;;;;;;5071992;28;20395;-69
2023/06/23 04:10:18;;;;;;;24.17;19.95;;;;;;;;;;5071427;28;20392;-68
2023/06/23 04:12:45;;;;;;;23.75;20.55;;;;;;;;;;5072959;28;20471;-69
2023/06/23 04:15:13;;;;;;;22.05;19.20;;;;;;;;;;5076960;28;20439;-68
2023/06/23 04:17:41;;;;;;;25.08;20.05;;;;;;;;;;5076910;28;20463;-69
2023/06/23 04:20:08;;;;;;;22.17;19.83;;;;;;;;;;5077023;28;20849;-68
2023/06/23 04:22:35;;;;;;;23.30;20.40;;;;;;;;;;5076595;28;20796;-69
2023/06/23 04:25:02;;;;;;;22.50;20.10;;;;;;;;;;5076355;28;20469;-69
2023/06/23 04:27:29;;;;;;;21.00;18.80;;;;;;;;;;5078988;28;20472;-69
2023/06/23 04:29:55;;;;;;;24.00;19.95;;;;;;;;;;5077231;28;20383;-69
2023/06/23 04:32:21;;;;;;;24.63;19.58;;;;;;;;;;5076743;28;20445;-69
2023/06/23 04:34:47;;;;;;;20.90;18.75;;;;;;;;;;5077290;28;20380;-68
2023/06/23 04:37:13;;;;;;;23.55;19.70;;;;;;;;;;5075701;28;20430;-68
2023/06/23 04:39:51;;;;;;;21.83;19.52;;;;;;;;;;5075996;28;20382;-69
2023/06/23 04:42:21;;;;;;;22.60;20.00;;;;;;;;;;5077590;28;20395;-68
2023/06/23 04:44:51;;;;;;;22.63;20.17;;;;;;;;;;5078112;28;20482;-69
2023/06/23 04:47:19;;;;;;;22.48;19.92;;;;;;;;;;5077628;28;20842;-68
2023/06/23 04:49:46;;;;;;;25.08;21.13;;;;;;;;;;5078133;28;20423;-69
2023/06/23 04:52:14;;;;;;;22.60;19.88;;;;;;;;;;5077629;28;20386;-69
2023/06/23 04:54:42;;;;;;;24.63;20.67;;;;;;;;;;5078343;28;20371;-69
2023/06/23 04:57:16;;;;;;;24.48;20.80;;;;;;;;;;5076629;28;20978;-69
2023/06/23 04:59:43;;;;;;;23.20;19.02;;;;;;;;;;5076880;28;20396;-69
2023/06/23 05:02:12;;;;;;;23.55;18.60;;;;;;;;;;5074809;28;20383;-69
2023/06/23 05:04:39;;;;;;;20.83;16.05;;;;;;;;;;5076836;28;20386;-69
2023/06/23 05:07:06;;;;;;;18.48;16.50;;;;;;;;;;5076975;28;20372;-69
2023/06/23 05:09:34;;;;;;;21.27;16.92;;;;;;;;;;5075662;28;20477;-68
2023/06/23 05:12:01;;;;;;;19.73;17.73;;;;;;;;;;5074113;28;20380;-69
2023/06/23 05:14:28;;;;;;;20.88;17.73;;;;;;;;;;5075116;28;20792;-68
2023/06/23 05:16:56;;;;;;;20.38;17.73;;;;;;;;;;5075176;28;20447;-69
2023/06/23 05:19:22;;;;;;;19.60;17.55;;;;;;;;;;5073861;28;20380;-69
2023/06/23 05:21:48;;;;;;;21.23;18.92;;;;;;;;;;5073743;28;20412;-68
2023/06/23 05:24:16;;;;;;;19.58;17.40;;;;;;;;;;5075489;28;20842;-69
2023/06/23 05:26:42;;;;;;;21.20;18.75;;;;;;;;;;5074473;28;20893;-70
2023/06/23 05:29:10;;;;;;;21.70;19.20;;;;;;;;;;5075181;28;20423;-69
2023/06/23 05:31:38;;;;;;;22.08;19.70;;;;;;;;;;5074457;28;20745;-69
2023/06/23 05:34:06;;;;;;;23.10;19.65;;;;;;;;;;5074632;28;20380;-69
2023/06/23 05:36:33;;;;;;;23.13;19.63;;;;;;;;;;5079146;28;20415;-68
2023/06/23 05:38:59;;;;;;;22.75;19.60;;;;;;;;;;5080747;28;20376;-68
2023/06/23 05:41:25;;;;;;;21.67;19.58;;;;;;;;;;5101203;22;20502;-66
2023/06/23 05:43:52;;;;;;;23.08;20.02;;;;;;;;;;5075841;28;20450;-66
2023/06/23 05:46:20;;;;;;;22.52;20.08;;;;;;;;;;5075691;28;20391;-66
2023/06/23 05:48:53;;;;;;;21.80;19.50;;;;;;;;;;5075183;28;20387;-67
2023/06/23 05:51:21;;;;;;;21.80;19.42;;;;;;;;;;5073329;28;20384;-66
2023/06/23 05:53:51;;;;;;;21.50;19.23;;;;;;;;;;5073782;28;20420;-66
2023/06/23 05:56:22;;;;;;;21.17;19.02;;;;;;;;;;5074472;28;20407;-66
2023/06/23 05:58:51;;;;;;;21.63;19.25;;;;;;;;;;5073271;28;20463;-66
2023/06/23 06:01:21;;;;;;;23.87;18.50;;;;;;;;;;5073384;28;20423;-66
2023/06/23 06:03:48;;;;;;;22.25;19.95;;;;;;;;;;5074580;28;20372;-66
2023/06/23 06:06:15;;;;;;;22.42;19.02;;;;;;;;;;5074404;28;20384;-66
2023/06/23 06:08:41;;;;;;;21.00;18.73;;;;;;;;;;5073310;28;20394;-66
2023/06/23 06:11:07;;;;;;;21.58;19.38;;;;;;;;;;5074791;28;20378;-66
2023/06/23 06:13:37;;;;;;;20.75;18.65;;;;;;;;;;5074140;28;20384;-67
2023/06/23 06:16:05;;;;;;;22.23;18.90;;;;;;;;;;5074852;28;20483;-66
2023/06/23 06:18:32;;;;;;;20.83;18.63;;;;;;;;;;5074055;28;20380;-67
2023/06/23 06:21:00;;;;;;;21.25;19.05;;;;;;;;;;5075047;28;20372;-66
2023/06/23 06:23:27;;;;;;;22.67;19.73;;;;;;;;;;5072794;28;20923;-66
2023/06/23 06:25:54;;;;;;;22.80;19.73;;;;;;;;;;5073911;28;20384;-67
2023/06/23 06:28:20;;;;;;;23.60;19.50;;;;;;;;;;5073651;28;20379;-67
2023/06/23 06:30:47;;;;;;;20.80;18.60;;;;;;;;;;5073625;28;20522;-67
2023/06/23 06:33:14;;;;;;;21.52;18.00;;;;;;;;;;5073603;28;20383;-67
2023/06/23 06:35:41;;;;;;;21.85;18.10;;;;;;;;;;5073514;28;20494;-68
2023/06/23 06:38:07;;;;;;;22.70;18.20;;;;;;;;;;5073038;28;20865;-67
2023/06/23 06:40:34;;;;;;;20.08;17.42;;;;;;;;;;5073547;28;20373;-67
2023/06/23 06:43:00;;;;;;;19.90;17.50;;;;;;;;;;5071876;28;20380;-67
2023/06/23 06:45:26;;;;;;;20.33;18.17;;;;;;;;;;5073260;28;20380;-67
2023/06/23 06:47:53;;;;;;;22.73;18.17;;;;;;;;;;5073004;28;20371;-67
2023/06/23 06:50:21;;;;;;;20.58;18.40;;;;;;;;;;5073289;28;20436;-67
2023/06/23 06:52:47;;;;;;;20.40;18.05;;;;;;;;;;5071723;28;20403;-67
2023/06/23 06:55:15;;;;;;;21.02;18.58;;;;;;;;;;5073916;28;20386;-67
2023/06/23 06:57:41;;;;;;;22.52;19.08;;;;;;;;;;5072931;28;20387;-67
2023/06/23 07:00:09;;;;;;;19.92;17.83;;;;;;;;;;5071963;28;20376;-67
2023/06/23 07:02:38;;;;;;;22.92;17.58;;;;;;;;;;5071704;28;20403;-67
2023/06/23 07:05:05;;;;;;;21.25;18.00;;;;;;;;;;5071553;28;20391;-66
2023/06/23 07:07:31;;;;;;;20.50;17.10;;;;;;;;;;5072736;28;20379;-67
2023/06/23 07:09:57;;;;;;;22.30;17.05;;;;;;;;;;5072784;28;20438;-66
2023/06/23 07:12:23;;;;;;;22.95;17.10;;;;;;;;;;5072544;28;20376;-66
2023/06/23 07:14:49;;;;;;;19.33;17.33;;;;;;;;;;5072861;28;20376;-67
2023/06/23 07:17:16;;;;;;;18.80;16.75;;;;;;;;;;5072732;28;20471;-67
2023/06/23 07:19:41;;;;;;;18.48;16.48;;;;;;;;;;5073029;28;20382;-67
2023/06/23 07:22:08;;;;;;;19.38;16.40;;;;;;;;;;5073102;28;20368;-66
2023/06/23 07:24:34;;;;;;;17.63;15.82;;;;;;;;;;5073119;28;20383;-66
2023/06/23 07:27:00;;;;;;;18.10;15.43;;;;;;;;;;5072025;28;20492;-67
2023/06/23 07:29:26;;;;;;;17.88;16.00;;;;;;;;;;5073281;28;20409;-67
2023/06/23 07:31:52;;;;;;;17.63;15.53;;;;;;;;;;5074180;28;20198;-66
2023/06/23 07:34:18;;;;;;;17.77;15.33;;;;;;;;;;5074968;28;20184;-67
2023/06/23 07:36:44;;;;;;;16.53;14.80;;;;;;;;;;5074379;28;20593;-67
2023/06/23 07:39:10;;;;;;;23.63;15.47;;;;;;;;;;5074341;28;20196;-66
2023/06/23 07:41:37;;;;;;;17.57;14.37;;;;;;;;;;5074130;28;20267;-66
2023/06/23 07:44:03;;;;;;;19.77;14.43;;;;;;;;;;5074266;28;20182;-67
2023/06/23 07:46:29;;;;;;;16.10;14.40;;;;;;;;;;5072608;28;20185;-66
2023/06/23 07:48:55;;;;;;;16.53;13.80;;;;;;;;;;5073654;28;20174;-67
2023/06/23 07:51:21;;;;;;;16.07;14.37;;;;;;;;;;5072765;28;20202;-66
2023/06/23 07:53:47;;;;;;;15.70;13.90;;;;;;;;;;5072950;28;20185;-66
2023/06/23 07:56:13;;;;;;;13.57;11.93;;;;;;;;;;5074228;28;20205;-66
2023/06/23 07:58:39;;;;;;;13.57;12.00;;;;;;;;;;5072808;28;20662;-66
2023/06/23 08:01:06;;;;;;;14.43;11.93;;;;;;;;;;5074022;28;20236;-66
2023/06/23 08:03:32;;;;;;;12.73;9.33;;;;;;;;;;5072602;28;20177;-66
2023/06/23 08:05:58;;;;;;;13.37;9.27;;;;;;;;;;5074103;28;20541;-67
2023/06/23 08:08:24;;;;;;;9.80;8.77;;;;;;;;;;5073766;28;20555;-67
2023/06/23 08:10:50;;;;;;;11.37;8.03;;;;;;;;;;5072250;28;20213;-66
2023/06/23 08:13:16;;;;;;;12.80;10.73;;;;;;;;;;5073708;28;20178;-67
2023/06/23 08:15:42;;;;;;;12.97;9.77;;;;;;;;;;5074091;28;20209;-67
2023/06/23 08:18:08;;;;;;;10.20;8.00;;;;;;;;;;5072243;28;20181;-66
2023/06/23 08:20:34;;;;;;;9.90;8.90;;;;;;;;;;5073306;28;20185;-68
2023/06/23 08:23:01;;;;;;;13.53;8.93;;;;;;;;;;5073855;28;20589;-67
2023/06/23 08:25:27;;;;;;;7.97;7.17;;;;;;;;;;5072606;28;20220;-66
2023/06/23 08:27:53;;;;;;;11.47;8.33;;;;;;;;;;5074056;28;20555;-65
2023/06/23 08:30:25;;;;;;;9.13;6.97;;;;;;;;;;5072426;28;20263;-66
2023/06/23 08:32:51;;;;;;;8.73;7.13;;;;;;;;;;5074813;28;20162;-66
2023/06/23 08:35:17;;;;;;;10.30;6.40;;;;;;;;;;5075742;28;20555;-66
2023/06/23 08:37:43;;;;;;;10.73;8.17;;;;;;;;;;5072669;28;20178;-66
2023/06/23 08:40:09;;;;;;;12.53;9.63;;;;;;;;;;5075001;28;20174;-66
2023/06/23 08:42:35;;;;;;;8.23;7.10;;;;;;;;;;5075404;28;20216;-66
2023/06/23 08:45:05;;;;;;;8.43;6.07;;;;;;;;;;5074530;28;20186;-67
2023/06/23 08:47:32;;;;;;;8.13;7.10;;;;;;;;;;5073404;28;20639;-67
2023/06/23 08:49:58;;;;;;;8.27;7.03;;;;;;;;;;5072000;28;20178;-66
2023/06/23 08:52:25;;;;;;;8.02;6.78;;;;;;;;;;5072212;28;20811;-67
2023/06/23 08:54:51;;;;;;;6.90;6.20;;;;;;;;;;5072329;28;20425;-66
2023/06/23 08:57:17;;;;;;;9.02;6.82;;;;;;;;;;5072683;28;20556;-66
2023/06/23 08:59:43;;;;;;;7.60;5.93;;;;;;;;;;5072379;28;20383;-66
2023/06/23 09:02:09;;;;;;;8.95;6.93;;;;;;;;;;5075930;28;20390;-66
2023/06/23 09:04:35;;;;;;;7.00;6.07;;;;;;;;;;5075721;28;20459;-66
2023/06/23 09:07:01;;;;;;;8.02;5.68;;;;;;;;;;5075863;28;20455;-66
2023/06/23 09:09:27;;;;;;;7.70;6.10;;;;;;;;;;5075394;28;20820;-66
2023/06/23 09:11:53;;;;;;;8.95;6.10;;;;;;;;;;5075322;28;20796;-67
2023/06/23 09:14:20;;;;;;;7.68;6.65;;;;;;;;;;5074451;28;20390;-67
2023/06/23 09:16:48;;;;;;;8.20;7.30;;;;;;;;;;5075146;28;20407;-66
2023/06/23 09:19:14;;;;;;;8.35;6.63;;;;;;;;;;5075256;28;20387;-66
2023/06/23 09:21:41;;;;;;;7.28;6.60;;;;;;;;;;5074846;28;20376;-66
2023/06/23 09:24:08;;;;;;;7.87;7.13;;;;;;;;;;5075183;28;20446;-68
2023/06/23 09:26:46;;;;;;;8.50;6.90;;;;;;;;;;5075511;28;20395;-66
2023/06/23 09:29:17;;;;;;;7.80;7.10;;;;;;;;;;5074722;28;20411;-67
2023/06/23 09:31:43;;;;;;;8.32;7.03;;;;;;;;;;5076457;28;20380;-70
2023/06/23 09:34:09;;;;;;;8.07;7.27;;;;;;;;;;5076349;28;20453;-66
2023/06/23 09:36:36;;;;;;;8.77;7.00;;;;;;;;;;5075248;28;20427;-66
2023/06/23 09:39:03;;;;;;;7.70;6.90;;;;;;;;;;5074700;28;20371;-66
2023/06/23 09:41:33;;;;;;;8.25;7.43;;;;;;;;;;5076945;28;20788;-66
2023/06/23 09:43:59;;;;;;;10.27;7.30;;;;;;;;;;5074916;28;20399;-67
2023/06/23 09:46:32;;;;;;;8.88;7.65;;;;;;;;;;5074968;28;20877;-66
2023/06/23 09:49:00;;;;;;;10.60;9.13;;;;;;;;;;5073117;28;20455;-66
2023/06/23 09:51:26;;;;;;;8.35;7.50;;;;;;;;;;5074669;28;20372;-66
2023/06/23 09:53:52;;;;;;;8.25;7.45;;;;;;;;;;5074501;28;20383;-66
2023/06/23 09:56:22;;;;;;;8.93;6.85;;;;;;;;;;5074430;28;20407;-66
2023/06/23 09:58:49;;;;;;;7.83;7.03;;;;;;;;;;5072747;28;20930;-66
2023/06/23 10:01:17;;;;;;;8.27;6.60;;;;;;;;;;5073160;28;20450;-66
2023/06/23 10:03:53;;;;;;;8.93;7.10;;;;;;;;;;5074349;28;20854;-66
2023/06/23 10:06:24;;;;;;;6.68;5.95;;;;;;;;;;5074191;28;20384;-66
2023/06/23 10:08:59;;;;;;;5.90;5.40;;;;;;;;;;5073390;28;20392;-66
2023/06/23 10:11:30;;;;;;;5.93;5.23;;;;;;;;;;5072472;28;20387;-66
2023/06/23 10:13:57;;;;;;;8.80;6.20;;;;;;;;;;5074926;28;20402;-66
2023/06/23 10:16:23;;;;;;;7.35;6.57;;;;;;;;;;5074491;28;20410;-66
2023/06/23 10:18:49;;;;;;;7.70;5.65;;;;;;;;;;5074767;28;20463;-66
2023/06/23 10:21:15;;;;;;;5.88;5.28;;;;;;;;;;5073916;28;20971;-66
2023/06/23 10:23:41;;;;;;;5.53;4.60;;;;;;;;;;5072584;28;20391;-66
2023/06/23 10:26:08;;;;;;;8.13;6.80;;;;;;;;;;5074640;28;20429;-66
2023/06/23 10:28:36;;;;;;;7.90;6.00;;;;;;;;;;5073932;28;20376;-66
2023/06/23 10:31:03;;;;;;;6.03;5.43;;;;;;;;;;5072460;28;20395;-65
2023/06/23 10:33:30;;;;;;;6.43;5.50;;;;;;;;;;5074207;28;20854;-66
2023/06/23 10:35:57;;;;;;;6.35;5.75;;;;;;;;;;5073826;28;20454;-66
2023/06/23 10:38:23;;;;;;;7.67;6.00;;;;;;;;;;5072715;28;20403;-66
2023/06/23 10:40:50;;;;;;;7.60;5.75;;;;;;;;;;5073454;28;20415;-66
2023/06/23 10:43:18;;;;;;;7.35;5.82;;;;;;;;;;5075040;28;20372;-66
2023/06/23 10:45:45;;;;;;;6.65;5.60;;;;;;;;;;5075286;28;20434;-66
2023/06/23 10:48:11;;;;;;;6.97;6.28;;;;;;;;;;5073651;28;20754;-65
2023/06/23 10:50:39;;;;;;;7.60;6.43;;;;;;;;;;5072844;28;20387;-66
2023/06/23 10:53:30;;;;;;;6.55;5.53;;;;;;;;;;5074415;28;20376;-65
2023/06/23 10:55:57;;;;;;;6.18;5.57;;;;;;;;;;5072725;28;20414;-66
2023/06/23 10:58:23;;;;;;;5.70;5.20;;;;;;;;;;5072957;28;20380;-66
2023/06/23 11:00:55;;;;;;;5.67;5.17;;;;;;;;;;5072989;28;20502;-67
2023/06/23 11:03:28;;;;;;;7.33;5.70;;;;;;;;;;5074271;28;20398;-67
2023/06/23 11:05:56;;;;;;;5.43;4.90;;;;;;;;;;5072713;28;20383;-65
2023/06/23 11:08:28;;;;;;;5.55;5.00;;;;;;;;;;5074065;28;20463;-66
2023/06/23 11:10:59;;;;;;;6.43;4.75;;;;;;;;;;5072927;28;20388;-66
2023/06/23 11:13:41;;;;;;;4.97;4.20;;;;;;;;;;5072766;28;20407;-66
2023/06/23 11:16:10;;;;;;;5.15;4.65;;;;;;;;;;5072992;28;20395;-68
2023/06/23 11:18:36;;;;;;;5.60;4.60;;;;;;;;;;5073024;28;20474;-72
2023/06/23 11:21:16;;;;;;;6.28;5.00;;;;;;;;;;5072597;28;20476;-66
2023/06/23 11:24:00;;;;;;;4.43;4.03;;;;;;;;;;5073427;28;20727;-67
2023/06/23 11:26:27;;;;;;;6.27;3.90;;;;;;;;;;5073878;28;20627;-68
2023/06/23 11:28:54;;;;;;;5.37;4.10;;;;;;;;;;5072753;28;20182;-71
2023/06/23 11:31:26;;;;;;;5.90;4.47;;;;;;;;;;5072477;28;20197;-66
2023/06/23 11:33:55;;;;;;;4.40;3.60;;;;;;;;;;5072343;28;20166;-68
2023/06/23 11:36:21;;;;;;;4.63;3.97;;;;;;;;;;5073563;28;20787;-69
2023/06/23 11:38:47;;;;;;;5.07;4.03;;;;;;;;;;5073848;28;20261;-67
2023/06/23 11:41:14;;;;;;;5.57;3.83;;;;;;;;;;5072322;28;20218;-68
2023/06/23 11:43:45;;;;;;;4.57;4.17;;;;;;;;;;5072901;28;20188;-65
2023/06/23 11:46:12;;;;;;;9.00;4.40;;;;;;;;;;5073854;28;20166;-67
2023/06/23 11:48:39;;;;;;;7.70;4.27;;;;;;;;;;5073400;28;20177;-66
2023/06/23 11:51:06;;;;;;;4.17;3.87;;;;;;;;;;5072085;28;20206;-66
2023/06/23 11:53:32;;;;;;;5.43;4.43;;;;;;;;;;5073297;28;20174;-68
2023/06/23 11:55:59;;;;;;;4.93;4.00;;;;;;;;;;5073460;28;20671;-67
2023/06/23 11:58:29;;;;;;;5.87;4.17;;;;;;;;;;5072039;28;20293;-67
2023/06/23 12:00:54;;;;;;;4.77;4.37;;;;;;;;;;5073110;28;20193;-67
2023/06/23 12:03:20;;;;;;;4.87;4.47;;;;;;;;;;5073349;28;20227;-67
2023/06/23 12:05:46;;;;;;;9.67;4.70;;;;;;;;;;5073278;28;20213;-67
2023/06/23 12:08:13;;;;;;;7.43;4.70;;;;;;;;;;5073035;28;20182;-67
2023/06/23 12:10:40;;;;;;;5.67;5.17;;;;;;;;;;5073633;28;20185;-67
2023/06/23 12:13:06;;;;;;;;;;;;;;;;;;5072283;28;20031;-67
2023/06/23 12:15:33;;;;;;;;;;;;;;;;;;5073309;28;19912;-67
2023/06/23 12:17:59;;;;;;;;;;;;;;;;;;5073445;28;19904;-67
2023/06/23 12:20:25;;;;;;;;;;;;;;;;;;5073319;28;20351;-67
2023/06/23 12:22:51;;;;;;;;;;;;;;;;;;5073302;28;19905;-68
2023/06/23 12:25:17;;;;;;;;;;;;;;;;;;5097407;22;19924;-68
2023/06/23 12:27:43;;;;;;;;;;;;;;;;;;5073104;28;19991;-68
2023/06/23 12:30:09;;;;;;;;;;;;;;;;;;5071784;28;19905;-65
2023/06/23 12:32:34;;;;;;;;;;;;;;;;;;5073056;28;19904;-69
2023/06/23 12:35:00;;;;;;;;;;;;;;;;;;5074847;28;19904;-66
2023/06/23 12:37:27;;;;;;;;;;;;;;;;;;5075986;28;19939;-70
2023/06/23 12:39:53;;;;;;;;;;;;;;;;;;5076344;28;19904;-69
2023/06/23 12:42:19;;;;;;;;;;;;;;;;;;5076782;28;19905;-68
2023/06/23 12:44:45;;;;;;;;;;;;;;;;;;5076649;28;19953;-69
2023/06/23 12:47:11;;;;;;;;;;;;;;;;;;5076039;28;19999;-68
2023/06/23 12:49:36;;;;;;;;;;;;;;;;;;5076596;28;19905;-68
2023/06/23 12:52:02;;;;;;;;;;;;;;;;;;5076622;28;19905;-68
2023/06/23 12:54:28;;;;;;;;;;;;;;;;;;5075877;28;20277;-68
2023/06/23 12:56:54;;;;;;;;;;;;;;;;;;5076686;28;19952;-68
2023/06/23 12:59:20;;;;;;;;;;;;;;;;;;5076455;28;19904;-68
2023/06/23 13:01:47;;;;;;;;;;;;;;;;;;5076653;28;20002;-67
2023/06/23 13:04:13;;;;;;;;;;;;;;;;;;5076515;28;19904;-68
2023/06/23 13:06:39;;;;;;;;;;;;;;;;;;5076583;28;19950;-68
2023/06/23 13:09:05;;;;;;;;;;;;;;;;;;5076461;28;20329;-68
2023/06/23 13:11:33;;;;;;;;;;;;;;;;;;5076229;28;19911;-68
2023/06/23 13:13:59;;;;;;;5.70;4.40;;;;;;;;;;5075680;28;20670;-68
2023/06/23 13:16:24;;;;;;;7.07;4.90;;;;;;;;;;5075985;28;20206;-67
2023/06/23 13:18:50;;;;;;;6.85;5.65;;;;;;;;;;5073243;28;20380;-67
2023/06/23 13:21:16;;;;;;;5.80;5.30;;;;;;;;;;5074550;28;20372;-68
2023/06/23 13:23:42;;;;;;;8.05;6.75;;;;;;;;;;5073111;28;20738;-67
2023/06/23 13:26:08;;;;;;;6.20;5.65;;;;;;;;;;5074208;28;20198;-68
2023/06/23 13:28:36;;;;;;;5.70;5.20;;;;;;;;;;5074142;28;20231;-68
2023/06/23 13:31:02;;;;;;;;;;;;;;;;;;5074590;28;20123;-68
2023/06/23 13:33:29;;;;;;;6.93;5.25;;;;;;;;;;5073056;28;20381;-67
2023/06/23 13:35:55;;;;;;;9.13;5.28;;;;;;;;;;5075356;28;20209;-68
2023/06/23 13:38:21;;;;;;;5.35;4.65;;;;;;;;;;5074043;28;20651;-67
2023/06/23 13:40:47;;;;;;;5.70;4.70;;;;;;;;;;5075541;28;20178;-68
2023/06/23 13:43:12;;;;;;;6.63;4.93;;;;;;;;;;5075399;28;20186;-69
2023/06/23 13:45:38;;;;;;;;;;;;;;;;;;5075631;28;20396;-68
2023/06/23 13:48:04;;;;;;;4.80;4.40;;;;;;;;;;5075024;28;20719;-68
2023/06/23 13:50:30;;;;;;;5.30;4.80;;;;;;;;;;5075210;28;20177;-67
2023/06/23 13:52:56;;;;;;;5.70;4.80;;;;;;;;;;5075437;28;20177;-68
2023/06/23 13:55:22;;;;;;;5.32;4.82;;;;;;;;;;5075122;28;20209;-68
2023/06/23 13:57:48;;;;;;;5.13;4.72;;;;;;;;;;5075104;28;20087;-68
2023/06/23 14:00:14;;;;;;;5.40;4.72;;;;;;;;;;5073875;28;20182;-69
2023/06/23 14:02:40;;;;;;;5.37;4.40;;;;;;;;;;5075161;28;20181;-68
2023/06/23 14:05:07;;;;;;;8.47;6.67;;;;;;;;;;5074957;28;20201;-68
2023/06/23 14:07:33;;;;;;;5.88;5.28;;;;;;;;;;5074982;28;20558;-69
2023/06/23 14:09:59;;;;;;;5.10;4.60;;;;;;;;;;5074018;28;20739;-67
2023/06/23 14:12:24;;;;;;;5.23;4.80;;;;;;;;;;5075790;28;20201;-68
2023/06/23 14:14:50;;;;;;;4.78;4.38;;;;;;;;;;5074114;28;20609;-69
2023/06/23 14:17:19;;;;;;;5.78;5.30;;;;;;;;;;5075395;28;20244;-69
2023/06/23 14:19:46;;;;;;;6.77;4.77;;;;;;;;;;5074680;28;20178;-69
2023/06/23 14:22:12;;;;;;;4.93;4.38;;;;;;;;;;5075106;28;20228;-69
2023/06/23 14:24:38;;;;;;;4.38;3.97;;;;;;;;;;5074479;28;20244;-69
2023/06/23 14:27:04;;;;;;;4.45;4.05;;;;;;;;;;5074858;28;20644;-69
2023/06/23 14:29:30;;;;;;;7.40;4.93;;;;;;;;;;5074570;28;20209;-69
2023/06/23 14:31:56;;;;;;;6.03;5.03;;;;;;;;;;5072914;28;20261;-69
2023/06/23 14:34:22;;;;;;;5.30;4.45;;;;;;;;;;5074332;28;20219;-69
2023/06/23 14:36:49;;;;;;;4.60;4.00;;;;;;;;;;5074039;28;20209;-69
2023/06/23 14:39:15;;;;;;;5.20;4.70;;;;;;;;;;5073206;28;20375;-68
2023/06/23 14:41:41;;;;;;;6.53;4.70;;;;;;;;;;5073045;28;20383;-69